Airfield :
LOGIN :

Register | Disclaimer

   EN    FR    IT 

 










Legend :    VFR   Marginal VFR   IFR   Intensive IFR   Very Intensive IFR
Visi :
Ceiling :
>= 8 km
>= 3000ft
5 to 8 km
1000 to 3000 ft
1500m to 5 km
500 to 1000 ft
800 to 1500m
200 to 500 ft
< 800m
< 200 ft
Symbols :   Thunderstorms  Fog  Heavy snow  Heavy precipitations  Wind > 20 kt
SIGMETs :     Misc.  Thunderstorms  Icing  Turbulence  Mountain Waves  Volcanic Ashes






- Airport Elevation : 287 ft


LFRL - Lanveoc Poulmic

CURRENT METAR :
  • 280400Z AUTO 24016KT 3400 -DZ BR OVC003 14/13 Q1018

EXPIRED METARs :
  • 280330Z AUTO 25014KT 3900 BR OVC002 14/13 Q1017
  • 280300Z AUTO 25014KT 4700 BR OVC002 14/13 Q1017
  • 280230Z AUTO 25016KT 3700 BR OVC002 14/13 Q1017
  • 280200Z AUTO 25015KT 3600 BR OVC002 14/14 Q1017
  • 280130Z AUTO 25014KT 4200 -DZ BR OVC002 14/14 Q1017
  • 280100Z AUTO 25014KT 4300 -DZ BR OVC003 14/14 Q1017
  • 280030Z AUTO 25013KT 5000 -DZ BR OVC002 14/14 Q1017
  • 280000Z AUTO 25015KT 4300 -DZ BR OVC002 14/14 Q1018
  • 272330Z AUTO 25016KT 3500 DZ BR OVC002 14/14 Q1018

TAF TAF LFRL
Valid from the 27 at 12:00 until the 28 at 12:00 UTC


271100Z 2712/2812 25014KT 9999 SCT025 BKN040
TEMPO 2712/2717 4000 -SHRA BKN025TCU
BECMG 2717/2719 BKN008
TEMPO 2719/2806 2000 RADZ BKN004



MET'MAP, your aeronautical weather chart ! - Copyright ORBIFLY December 2007 - Disclaimer

ORBIFLY MET'MAP TEAM :

Programming & Development : Alexandra Zaïnal
Original concept : Baudouin d'Aumeries
Technical & hardware support : Manuel Goepfert
Assistance : Marc-Olivier Méhu




SOURCES & CREDITS :

   NOAA